Time;durP1;ratioP1;P1;durP2;ratioP2;P2;SDS_P1;SDS_P2;PMS_P1;PMS_P2;Temp;Humidity;BMP_temperature;BMP_pressure;BME280_temperature;BME280_humidity;BME280_pressure;Samples;Min_cycle;Max_cycle;Signal;HPM_P1;HPM_P2
2022/12/11 00:00:08;;;;;;;47.13;28.43;;;;;;;2.12;64.76;100574.00;675544;29;1041;-84
2022/12/11 00:00:29;;;;;;;49.55;29.38;;;;;;;2.16;65.08;100577.63;680387;29;1262;-84
2022/12/11 00:00:50;;;;;;;49.45;29.88;;;;;;;2.13;64.59;100567.16;685446;28;1221;-83
2022/12/11 00:01:13;;;;;;;50.90;31.05;;;;;;;2.16;64.99;100588.81;680301;29;1126;-84
2022/12/11 00:01:34;;;;;;;52.65;31.20;;;;;;;2.14;64.94;100587.84;680223;29;1150;-84
2022/12/11 00:01:55;;;;;;;53.77;31.20;;;;;;;2.15;64.58;100579.31;682987;29;1075;-84
2022/12/11 00:02:15;;;;;;;57.63;31.08;;;;;;;2.16;64.76;100577.63;680244;29;1126;-84
2022/12/11 00:02:36;;;;;;;55.70;30.92;;;;;;;2.24;64.61;100588.38;675275;29;1213;-84
2022/12/11 00:02:57;;;;;;;55.07;30.77;;;;;;;2.16;64.95;100583.66;677729;29;1281;-84
2022/12/11 00:03:17;;;;;;;52.60;30.13;;;;;;;2.14;64.83;100581.81;682449;29;1171;-83
2022/12/11 00:03:38;;;;;;;52.58;29.65;;;;;;;2.16;64.94;100577.63;682913;28;967;-84
2022/12/11 00:03:59;;;;;;;55.17;30.15;;;;;;;2.20;64.62;100589.00;680447;29;808;-84
2022/12/11 00:04:19;;;;;;;53.25;29.40;;;;;;;2.21;64.96;100589.09;685501;28;1282;-83
2022/12/11 00:04:40;;;;;;;52.83;30.10;;;;;;;2.14;64.91;100574.09;675084;29;1222;-84
2022/12/11 00:05:00;;;;;;;50.47;29.90;;;;;;;2.12;64.77;100576.56;677707;29;1196;-83
2022/12/11 00:05:21;;;;;;;52.28;31.58;;;;;;;2.12;64.95;100580.81;680228;29;1160;-84
2022/12/11 00:05:42;;;;;;;55.73;31.27;;;;;;;2.10;65.26;100566.97;677733;29;980;-84
2022/12/11 00:06:09;;;;;;;56.97;31.08;;;;;;;2.16;65.15;100586.22;677585;29;1172;-83
2022/12/11 00:06:29;;;;;;;55.15;29.92;;;;;;;2.12;64.57;100568.84;682894;29;1234;-84
2022/12/11 00:06:51;;;;;;;52.42;30.10;;;;;;;2.20;64.77;100583.84;680090;29;1326;-84
2022/12/11 00:07:12;;;;;;;54.63;30.95;;;;;;;2.15;64.74;100576.72;680261;29;1126;-84
2022/12/11 00:07:32;;;;;;;54.60;31.90;;;;;;;2.20;64.79;100579.59;682726;28;1024;-84
2022/12/11 00:07:53;;;;;;;54.37;32.40;;;;;;;2.18;64.65;100582.09;677334;29;1394;-83
2022/12/11 00:08:14;;;;;;;52.93;32.37;;;;;;;2.17;64.76;100574.25;682854;29;1083;-84
2022/12/11 00:08:35;;;;;;;53.00;32.28;;;;;;;2.25;65.18;100593.63;677583;29;1162;-84
2022/12/11 00:08:56;;;;;;;51.95;32.35;;;;;;;2.27;64.90;100592.03;675059;29;1119;-83
2022/12/11 00:09:17;;;;;;;54.03;32.70;;;;;;;2.16;64.55;100568.22;680328;29;1002;-83
2022/12/11 00:09:38;;;;;;;52.58;31.65;;;;;;;2.23;64.85;100581.44;677703;29;1403;-84
2022/12/11 00:09:58;;;;;;;53.77;31.13;;;;;;;2.17;64.58;100570.00;680343;29;1205;-83
2022/12/11 00:10:19;;;;;;;54.00;31.30;;;;;;;2.24;65.00;100596.09;682892;28;1374;-84
2022/12/11 00:10:46;;;;;;;55.90;32.00;;;;;;;2.17;64.97;100580.31;682955;29;1063;-84
2022/12/11 00:11:08;;;;;;;53.78;32.35;;;;;;;2.20;65.00;100586.44;685618;28;986;-84
2022/12/11 00:11:29;;;;;;;54.35;31.75;;;;;;;2.21;65.02;100585.63;685585;28;1454;-84
2022/12/11 00:11:49;;;;;;;56.38;32.25;;;;;;;2.14;64.99;100580.13;682815;29;1378;-83
2022/12/11 00:12:10;;;;;;;56.33;31.50;;;;;;;2.13;65.04;100580.03;675135;29;1150;-83
2022/12/11 00:12:30;;;;;;;57.88;32.50;;;;;;;2.15;65.02;100581.00;675038;29;1223;-83
2022/12/11 00:12:51;;;;;;;55.00;32.22;;;;;;;2.15;64.65;100579.31;675056;29;1199;-84
2022/12/11 00:13:11;;;;;;;54.57;32.30;;;;;;;2.12;65.14;100571.41;680230;29;1096;-83
2022/12/11 00:13:32;;;;;;;52.65;31.65;;;;;;;2.05;65.26;100579.56;677724;29;1252;-84
2022/12/11 00:13:53;;;;;;;55.78;32.30;;;;;;;2.10;65.32;100572.13;677704;29;932;-84
2022/12/11 00:14:14;;;;;;;55.23;31.87;;;;;;;2.06;64.77;100570.19;677678;29;987;-83
2022/12/11 00:14:35;;;;;;;54.05;31.70;;;;;;;2.09;65.11;100571.25;674472;29;1903;-83
2022/12/11 00:14:55;;;;;;;50.40;29.60;;;;;;;2.10;65.07;100572.13;677685;29;1176;-83
2022/12/11 00:15:16;;;;;;;47.67;28.00;;;;;;;2.11;64.84;100574.78;680276;29;1326;-84
2022/12/11 00:15:37;;;;;;;48.58;28.80;;;;;;;2.12;65.14;100576.56;674717;29;1038;-83
2022/12/11 00:15:58;;;;;;;51.30;30.70;;;;;;;2.10;65.19;100570.44;674684;29;856;-84
2022/12/11 00:16:19;;;;;;;52.45;31.60;;;;;;;2.12;65.13;100576.56;675049;29;1228;-84
2022/12/11 00:16:40;;;;;;;53.20;31.17;;;;;;;2.22;65.33;100584.84;682755;29;1114;-84
2022/12/11 00:17:00;;;;;;;53.78;30.48;;;;;;;2.13;65.11;100574.91;677564;29;1245;-84
2022/12/11 00:17:21;;;;;;;54.80;31.00;;;;;;;2.18;64.84;100582.09;678200;29;1059;-84
2022/12/11 00:17:42;;;;;;;53.17;30.95;;;;;;;2.20;64.97;100581.28;677639;29;1188;-84
2022/12/11 00:18:02;;;;;;;52.37;30.27;;;;;;;2.12;65.15;100574.00;675097;29;1198;-83
2022/12/11 00:18:23;;;;;;;53.78;30.98;;;;;;;2.15;65.44;100581.88;677583;29;1055;-84
2022/12/11 00:18:43;;;;;;;55.22;31.15;;;;;;;2.16;64.97;100580.22;677893;29;1143;-84
2022/12/11 00:19:04;;;;;;;53.20;30.37;;;;;;;2.15;64.95;100571.59;677682;29;1093;-84
2022/12/11 00:19:24;;;;;;;50.00;28.77;;;;;;;2.12;65.09;100580.81;677994;29;1050;-84
2022/12/11 00:19:45;;;;;;;49.28;28.67;;;;;;;2.12;65.18;100575.66;678321;29;1184;-84
2022/12/11 00:20:06;;;;;;;51.90;30.27;;;;;;;2.12;65.21;100571.41;680070;29;1068;-83
2022/12/11 00:20:27;;;;;;;51.85;30.30;;;;;;;2.13;64.89;100573.19;682701;28;1316;-83
2022/12/11 00:20:48;;;;;;;53.83;30.75;;;;;;;2.17;64.92;100580.31;680191;29;1106;-84
2022/12/11 00:21:12;;;;;;;51.80;29.77;;;;;;;2.16;65.42;100578.50;677617;29;1160;-84
2022/12/11 00:21:33;;;;;;;51.92;30.10;;;;;;;2.13;64.89;100574.91;677511;29;1339;-83
2022/12/11 00:21:54;;;;;;;49.10;29.40;;;;;;;2.11;65.35;100572.22;675034;29;1250;-83
2022/12/11 00:22:14;;;;;;;49.25;29.58;;;;;;;2.09;65.17;100565.19;682699;28;1060;-83
2022/12/11 00:22:35;;;;;;;49.17;29.20;;;;;;;2.06;64.90;100571.06;676966;29;1222;-83
2022/12/11 00:22:55;;;;;;;49.10;28.92;;;;;;;2.12;65.59;100568.84;677581;29;1182;-83
2022/12/11 00:23:16;;;;;;;52.25;29.90;;;;;;;2.10;65.16;100579.84;677665;29;1089;-84
2022/12/11 00:23:37;;;;;;;56.30;31.30;;;;;;;2.11;65.32;100579.94;677608;29;1086;-84
2022/12/11 00:23:58;;;;;;;57.90;31.45;;;;;;;2.01;65.57;100562.19;677677;29;1220;-83
2022/12/11 00:24:20;;;;;;;56.30;30.95;;;;;;;2.03;65.47;100576.03;680067;29;1262;-84
2022/12/11 00:24:40;;;;;;;54.10;31.20;;;;;;;2.02;65.20;100569.97;677489;29;1276;-84
2022/12/11 00:25:01;;;;;;;54.15;31.25;;;;;;;2.10;65.16;100588.47;672494;29;1235;-84
2022/12/11 00:25:22;;;;;;;51.55;30.42;;;;;;;2.10;65.27;100583.31;672460;29;1350;-84
2022/12/11 00:25:46;;;;;;;53.00;29.30;;;;;;;2.07;65.39;100570.25;674966;29;1063;-84
2022/12/11 00:26:11;;;;;;;54.60;29.88;;;;;;;2.07;65.09;100572.81;680397;29;1014;-84
2022/12/11 00:26:32;;;;;;;58.00;29.46;;;;;;;2.06;65.11;100575.31;677642;29;1320;-84
2022/12/11 00:26:52;;;;;;;53.13;28.43;;;;;;;2.04;65.17;100570.94;680134;29;1044;-84
2022/12/11 00:27:13;;;;;;;51.30;29.00;;;;;;;2.09;65.25;100581.56;677619;29;1013;-84
2022/12/11 00:27:33;;;;;;;49.08;29.40;;;;;;;2.09;65.34;100576.41;675030;29;1145;-83
2022/12/11 00:27:54;;;;;;;49.60;30.10;;;;;;;2.04;65.47;100572.66;677576;29;1388;-84
2022/12/11 00:28:18;;;;;;;48.60;29.90;;;;;;;2.11;65.14;100586.75;680322;29;1132;-84
2022/12/11 00:28:39;;;;;;;50.90;30.02;;;;;;;2.03;65.47;100576.03;675026;29;1011;-83
2022/12/11 00:28:59;;;;;;;53.35;31.08;;;;;;;2.04;65.42;100573.53;677679;29;1195;-84
2022/12/11 00:29:20;;;;;;;54.17;31.08;;;;;;;2.07;65.24;100577.09;680107;29;1396;-83
2022/12/11 00:29:41;;;;;;;52.83;30.30;;;;;;;2.10;65.50;100578.16;680280;29;1118;-84
2022/12/11 00:30:01;;;;;;;50.42;29.38;;;;;;;2.05;65.70;100579.56;680243;29;1157;-84
2022/12/11 00:30:22;;;;;;;50.90;29.70;;;;;;;2.04;65.50;100572.66;677616;29;988;-83
2022/12/11 00:30:43;;;;;;;52.03;30.43;;;;;;;2.14;65.26;100585.25;680172;29;1040;-83
2022/12/11 00:31:10;;;;;;;53.22;30.40;;;;;;;2.06;65.65;100565.03;680315;29;1167;-84
2022/12/11 00:31:31;;;;;;;54.30;30.40;;;;;;;2.10;65.65;100577.28;682788;28;1159;-84
2022/12/11 00:31:51;;;;;;;53.13;30.20;;;;;;;2.13;65.28;100578.34;675018;29;1137;-83
2022/12/11 00:32:12;;;;;;;54.42;31.13;;;;;;;2.08;65.24;100572.03;674946;29;1165;-83
2022/12/11 00:32:33;;;;;;;58.00;32.65;;;;;;;2.15;65.21;100587.03;676960;29;1300;-83
2022/12/11 00:32:53;;;;;;;61.50;33.03;;;;;;;2.08;65.54;100569.44;677720;29;720;-83
2022/12/11 00:33:14;;;;;;;60.70;32.90;;;;;;;2.07;65.27;100577.09;680134;29;1264;-83
2022/12/11 00:33:35;;;;;;;58.03;32.33;;;;;;;2.04;65.37;100568.38;677561;29;1183;-83
2022/12/11 00:33:55;;;;;;;55.97;32.35;;;;;;;2.07;65.55;100571.94;683055;29;856;-83
2022/12/11 00:34:16;;;;;;;57.17;32.53;;;;;;;2.06;65.32;100572.75;682794;29;1318;-83
2022/12/11 00:34:37;;;;;;;56.37;32.30;;;;;;;2.02;65.67;100564.84;685385;28;1914;-83
2022/12/11 00:34:57;;;;;;;56.65;32.60;;;;;;;2.06;65.58;100577.91;685581;28;780;-83
2022/12/11 00:35:18;;;;;;;54.80;31.45;;;;;;;2.05;65.44;100569.28;680027;29;1115;-83
2022/12/11 00:35:40;;;;;;;54.17;31.43;;;;;;;2.10;65.13;100582.41;680143;28;1159;-83
2022/12/11 00:36:01;;;;;;;53.58;30.90;;;;;;;2.07;65.16;100583.13;677687;29;1362;-83
2022/12/11 00:36:26;;;;;;;54.38;30.85;;;;;;;2.06;65.71;100567.59;677492;29;1078;-83
2022/12/11 00:36:46;;;;;;;54.40;30.30;;;;;;;2.07;65.50;100571.94;677357;29;1191;-83
2022/12/11 00:37:07;;;;;;;54.03;30.20;;;;;;;2.05;65.32;100564.13;675003;29;1167;-83
2022/12/11 00:37:27;;;;;;;52.45;30.27;;;;;;;2.06;65.35;100570.19;677733;29;1006;-83
2022/12/11 00:37:48;;;;;;;54.17;30.35;;;;;;;2.01;65.14;100569.91;675002;29;1201;-83
2022/12/11 00:38:14;;;;;;;53.53;30.10;;;;;;;1.90;65.61;100572.72;680230;29;1083;-83
2022/12/11 00:38:35;;;;;;;53.92;30.67;;;;;;;1.97;66.04;100588.53;677583;29;1300;-83
2022/12/11 00:38:55;;;;;;;56.05;31.95;;;;;;;1.89;66.12;100578.66;680259;29;880;-83
2022/12/11 00:39:16;;;;;;;56.90;32.93;;;;;;;1.93;65.70;100569.44;680183;29;1082;-83
2022/12/11 00:39:38;;;;;;;55.88;32.60;;;;;;;1.93;65.63;100571.09;677608;29;1081;-83
2022/12/11 00:39:59;;;;;;;56.63;31.95;;;;;;;2.02;65.73;100584.56;680293;29;1372;-83
2022/12/11 00:40:19;;;;;;;54.92;31.77;;;;;;;2.01;65.63;100580.22;675007;29;1036;-83
2022/12/11 00:40:40;;;;;;;56.70;32.50;;;;;;;1.99;65.72;100574.06;677505;29;1183;-83
2022/12/11 00:41:01;;;;;;;55.20;32.60;;;;;;;1.95;65.68;100572.97;677617;29;816;-83
2022/12/11 00:41:22;;;;;;;57.07;32.33;;;;;;;1.98;65.94;100573.19;677573;29;1155;-83
2022/12/11 00:41:42;;;;;;;56.63;31.70;;;;;;;2.01;65.51;100577.63;674942;29;1206;-83
2022/12/11 00:42:03;;;;;;;57.35;31.50;;;;;;;2.06;65.79;100580.47;677550;29;1165;-83
2022/12/11 00:42:23;;;;;;;53.58;30.63;;;;;;;1.98;65.76;100569.72;677482;29;1090;-83
2022/12/11 00:42:44;;;;;;;53.67;30.90;;;;;;;2.03;65.33;100578.59;680195;29;1147;-83
2022/12/11 00:43:05;;;;;;;53.40;30.55;;;;;;;2.06;65.62;100581.34;680226;29;1028;-83
2022/12/11 00:43:25;;;;;;;56.28;32.10;;;;;;;1.99;65.70;100568.91;682606;29;1056;-83
2022/12/11 00:43:46;;;;;;;57.10;32.27;;;;;;;2.04;65.46;100582.94;680215;29;1255;-83
2022/12/11 00:44:06;;;;;;;56.50;32.72;;;;;;;2.03;65.51;100576.03;680205;29;1217;-83
2022/12/11 00:44:27;;;;;;;56.70;33.08;;;;;;;2.08;65.87;100579.75;677635;29;1110;-83
2022/12/11 00:44:48;;;;;;;54.35;32.33;;;;;;;2.03;65.68;100570.88;672447;29;1251;-82
2022/12/11 00:45:09;;;;;;;54.30;31.70;;;;;;;2.04;65.60;100582.94;672429;29;985;-83
2022/12/11 00:45:29;;;;;;;51.80;30.75;;;;;;;2.10;65.66;100582.41;677648;29;1359;-82
2022/12/11 00:45:50;;;;;;;52.55;30.90;;;;;;;2.09;65.54;100591.84;674883;29;1217;-83
2022/12/11 00:46:11;;;;;;;53.72;31.75;;;;;;;2.04;65.31;100570.94;674975;29;1205;-83
2022/12/11 00:46:32;;;;;;;51.35;30.65;;;;;;;2.08;65.60;100584.88;680101;29;1193;-83
2022/12/11 00:46:53;;;;;;;52.08;30.65;;;;;;;2.00;65.55;100566.44;677398;29;1174;-83
2022/12/11 00:47:13;;;;;;;53.67;30.70;;;;;;;2.00;65.35;100573.25;674859;29;1104;-83
2022/12/11 00:47:34;;;;;;;55.37;31.17;;;;;;;2.00;65.31;100575.81;674915;29;1220;-83
2022/12/11 00:47:54;;;;;;;54.08;31.30;;;;;;;1.99;65.53;100574.06;680165;29;1160;-83
2022/12/11 00:48:15;;;;;;;52.72;31.67;;;;;;;1.99;65.55;100564.66;677574;29;1109;-83
2022/12/11 00:48:35;;;;;;;55.10;32.60;;;;;;;2.01;65.68;100568.22;674936;29;1224;-83
2022/12/11 00:48:56;;;;;;;55.97;32.20;;;;;;;2.11;65.78;100591.91;672435;29;1223;-83
2022/12/11 00:49:17;;;;;;;58.33;32.70;;;;;;;2.02;65.53;100567.41;677409;29;1166;-82
2022/12/11 00:49:37;;;;;;;58.37;33.43;;;;;;;2.03;65.42;100564.03;682262;29;1173;-83
2022/12/11 00:49:58;;;;;;;56.92;34.00;;;;;;;2.06;65.33;100571.06;685631;28;802;-83
2022/12/11 00:50:18;;;;;;;53.83;32.35;;;;;;;2.09;65.54;100580.66;680099;29;1179;-83
2022/12/11 00:50:39;;;;;;;53.97;31.50;;;;;;;2.10;65.61;100588.47;677508;29;1162;-83
2022/12/11 00:51:00;;;;;;;54.35;31.38;;;;;;;2.15;65.41;100592.19;677571;29;1116;-83
2022/12/11 00:51:21;;;;;;;56.63;32.60;;;;;;;2.03;65.35;100570.88;679999;29;1328;-82
2022/12/11 00:51:41;;;;;;;59.47;33.53;;;;;;;2.07;65.50;100572.81;682867;29;1099;-83
2022/12/11 00:52:02;;;;;;;59.92;33.38;;;;;;;2.07;65.52;100580.53;682745;29;1233;-83
2022/12/11 00:52:23;;;;;;;57.50;32.77;;;;;;;2.02;65.60;100563.97;677625;29;1279;-83
2022/12/11 00:52:44;;;;;;;55.17;31.70;;;;;;;2.04;65.47;100580.38;674976;29;1000;-83
2022/12/11 00:53:06;;;;;;;55.75;31.67;;;;;;;2.01;65.70;100575.94;680130;29;1143;-84
2022/12/11 00:53:26;;;;;;;57.60;32.50;;;;;;;2.03;65.60;100566.59;675035;29;1009;-83
2022/12/11 00:53:47;;;;;;;54.87;32.03;;;;;;;2.03;65.68;100573.44;680158;29;1157;-83
2022/12/11 00:54:08;;;;;;;53.80;31.60;;;;;;;2.03;65.34;100576.03;672378;29;1170;-83
2022/12/11 00:54:28;;;;;;;55.20;31.08;;;;;;;2.09;65.59;100580.66;677459;29;1974;-83
2022/12/11 00:54:49;;;;;;;56.55;31.35;;;;;;;2.05;65.65;100579.56;677566;29;1192;-83
2022/12/11 00:55:10;;;;;;;56.47;31.43;;;;;;;2.08;65.71;100587.47;680236;29;1021;-83
2022/12/11 00:55:31;;;;;;;58.17;31.55;;;;;;;2.02;65.57;100574.25;685574;28;1201;-83
2022/12/11 00:55:51;;;;;;;58.88;31.17;;;;;;;1.99;66.00;100568.91;682954;28;1058;-83
2022/12/11 00:56:16;;;;;;;59.33;31.63;;;;;;;2.04;65.59;100575.22;682770;29;1191;-83
2022/12/11 00:56:36;;;;;;;58.40;32.03;;;;;;;1.98;65.99;100567.13;677373;29;1441;-83
2022/12/11 00:56:57;;;;;;;55.80;31.50;;;;;;;2.01;65.75;100580.22;672362;29;1204;-83
2022/12/11 00:57:17;;;;;;;55.90;32.05;;;;;;;1.97;65.52;100576.56;677521;29;1002;-83
2022/12/11 00:57:38;;;;;;;58.70;33.50;;;;;;;1.96;65.72;100574.75;677756;29;1128;-83
2022/12/11 00:57:59;;;;;;;59.03;34.10;;;;;;;2.00;65.92;100578.41;680319;29;804;-83
2022/12/11 00:58:20;;;;;;;61.35;34.50;;;;;;;2.01;65.96;100586.22;682766;28;1186;-84
2022/12/11 00:58:41;;;;;;;59.65;33.90;;;;;;;2.03;65.95;100582.03;682764;28;1202;-83
2022/12/11 00:59:02;;;;;;;60.20;32.80;;;;;;;2.03;65.73;100588.91;680103;29;1117;-83
2022/12/11 00:59:22;;;;;;;60.37;33.10;;;;;;;2.09;65.75;100590.94;678002;29;1053;-83
2022/12/11 00:59:43;;;;;;;61.00;33.08;;;;;;;2.05;65.73;100589.88;680076;29;1192;-84
2022/12/11 01:00:07;;;;;;;62.80;33.45;;;;;;;2.09;65.83;100597.00;682876;29;1163;-83
2022/12/11 01:00:28;;;;;;;63.38;32.75;;;;;;;2.04;65.85;100585.53;677514;29;980;-83
2022/12/11 01:00:49;;;;;;;64.75;32.60;;;;;;;2.07;65.98;100588.28;680118;29;951;-83
2022/12/11 01:01:13;;;;;;;63.08;33.17;;;;;;;2.01;65.72;100585.34;672280;29;1220;-83
2022/12/11 01:01:34;;;;;;;62.63;33.30;;;;;;;2.03;66.14;100578.59;672394;29;1055;-83
2022/12/11 01:01:55;;;;;;;64.03;33.50;;;;;;;2.04;65.62;100581.25;674957;29;1460;-83
2022/12/11 01:02:15;;;;;;;65.27;33.03;;;;;;;2.05;65.60;100584.72;682736;29;993;-83
2022/12/11 01:02:36;;;;;;;64.93;32.78;;;;;;;2.11;66.13;100592.81;682802;29;1384;-83
2022/12/11 01:02:56;;;;;;;61.10;32.90;;;;;;;2.03;66.24;100581.19;680261;29;1195;-83
2022/12/11 01:03:17;;;;;;;62.10;34.17;;;;;;;2.07;66.12;100587.41;680112;29;970;-83
2022/12/11 01:03:38;;;;;;;64.13;35.85;;;;;;;2.09;65.78;100586.69;675006;29;1031;-83
2022/12/11 01:03:58;;;;;;;66.70;36.67;;;;;;;2.01;65.82;100575.06;674911;29;1334;-83
2022/12/11 01:04:19;;;;;;;66.30;36.92;;;;;;;2.07;65.77;100584.81;674817;29;1086;-83
2022/12/11 01:04:40;;;;;;;65.83;35.67;;;;;;;2.06;66.06;100583.91;680151;28;1263;-83
2022/12/11 01:05:00;;;;;;;63.28;34.55;;;;;;;2.10;65.69;100582.41;680336;29;792;-83
2022/12/11 01:05:21;;;;;;;64.35;33.95;;;;;;;2.07;65.75;100583.13;682628;28;1205;-83
2022/12/11 01:05:53;;;;;;;61.40;33.10;;;;;;;2.14;65.87;100595.56;680166;29;1200;-83
2022/12/11 01:06:19;;;;;;;62.95;33.67;;;;;;;2.04;65.64;100570.94;677455;29;1293;-83
2022/12/11 01:06:40;;;;;;;69.20;35.22;;;;;;;2.08;65.56;100579.75;679881;29;1279;-83
2022/12/11 01:07:01;;;;;;;65.40;35.30;;;;;;;2.10;66.07;100582.41;682764;29;1502;-83
2022/12/11 01:07:21;;;;;;;66.03;35.55;;;;;;;2.04;65.77;100575.22;682786;28;1156;-83
2022/12/11 01:07:42;;;;;;;62.43;35.10;;;;;;;2.08;65.84;100579.75;677525;29;1127;-83
2022/12/11 01:08:02;;;;;;;64.72;34.55;;;;;;;2.12;65.92;100592.00;680159;29;1163;-83
2022/12/11 01:08:23;;;;;;;65.68;33.83;;;;;;;2.00;66.41;100573.25;680157;29;1051;-83
2022/12/11 01:08:45;;;;;;;63.40;33.10;;;;;;;2.02;65.91;100580.28;677478;29;1096;-83
2022/12/11 01:10:23;;;;;;;62.90;34.35;;;;;;;2.07;66.21;100582.25;674919;29;1063;-83
2022/12/11 01:10:44;;;;;;;63.50;35.13;;;;;;;2.03;66.12;100581.19;674852;29;1186;-83
2022/12/11 01:11:08;;;;;;;65.53;35.85;;;;;;;2.04;66.23;100582.94;677563;29;1082;-83
2022/12/11 01:11:28;;;;;;;66.43;36.00;;;;;;;2.06;65.82;100585.63;674898;29;985;-83
2022/12/11 01:11:49;;;;;;;64.20;34.97;;;;;;;2.02;66.07;100584.56;680180;29;1042;-83
2022/12/11 01:12:10;;;;;;;62.22;33.65;;;;;;;1.99;66.44;100574.06;680081;29;1301;-83
2022/12/11 01:12:31;;;;;;;63.42;33.60;;;;;;;2.07;66.00;100588.28;680043;29;1161;-83
2022/12/11 01:12:56;;;;;;;65.00;34.90;;;;;;;2.00;65.82;100573.25;677126;29;1076;-83
2022/12/11 01:13:17;;;;;;;67.97;36.10;;;;;;;2.00;66.23;100586.13;674915;29;1173;-84
2022/12/11 01:13:39;;;;;;;70.47;36.97;;;;;;;1.98;66.02;100578.34;680196;29;1010;-83
2022/12/11 01:14:00;;;;;;;69.60;36.72;;;;;;;2.06;65.90;100585.63;682903;28;851;-83
2022/12/11 01:14:20;;;;;;;70.55;35.92;;;;;;;2.06;66.04;100588.19;680050;29;1084;-83
2022/12/11 01:14:41;;;;;;;69.60;34.97;;;;;;;1.98;66.08;100573.19;682680;29;1934;-83
2022/12/11 01:15:02;;;;;;;69.80;35.35;;;;;;;2.01;66.06;100581.06;685414;28;1232;-83
2022/12/11 01:15:25;;;;;;;71.88;36.60;;;;;;;2.08;66.10;100590.03;677616;29;959;-83
2022/12/11 01:15:46;;;;;;;70.20;35.38;;;;;;;1.98;65.98;100578.34;680118;29;1295;-83
2022/12/11 01:16:14;;;;;;;65.20;33.67;;;;;;;2.04;65.99;100582.94;680268;29;1191;-83
2022/12/11 01:16:34;;;;;;;64.53;34.17;;;;;;;1.98;66.13;100577.44;672231;29;1212;-83
2022/12/11 01:16:55;;;;;;;65.40;34.10;;;;;;;2.00;65.97;100586.13;672359;29;841;-83
2022/12/11 01:17:16;;;;;;;71.30;34.95;;;;;;;1.98;65.83;100573.19;674941;29;963;-83
2022/12/11 01:17:37;;;;;;;70.88;35.00;;;;;;;2.00;66.42;100575.81;674973;29;1058;-83
2022/12/11 01:17:58;;;;;;;72.00;35.75;;;;;;;2.04;66.07;100588.09;682883;29;1190;-83
2022/12/11 01:18:18;;;;;;;67.70;35.30;;;;;;;2.03;66.24;100586.31;682708;29;1138;-83
2022/12/11 01:18:39;;;;;;;69.00;34.15;;;;;;;1.95;65.69;100583.28;680070;29;1129;-83
2022/12/11 01:19:00;;;;;;;65.55;33.17;;;;;;;2.01;66.07;100593.06;680226;28;1297;-83
2022/12/11 01:19:21;;;;;;;63.13;32.67;;;;;;;2.02;65.92;100592.28;680038;29;1217;-83
2022/12/11 01:19:41;;;;;;;60.83;33.60;;;;;;;1.98;66.03;100580.91;682723;28;1243;-83
2022/12/11 01:20:03;;;;;;;63.38;34.28;;;;;;;2.03;66.18;100594.91;683206;29;761;-83
2022/12/11 01:20:26;;;;;;;66.35;35.35;;;;;;;1.94;65.95;100581.50;680636;29;961;-83
2022/12/11 01:20:47;;;;;;;67.30;36.25;;;;;;;1.91;66.30;100577.06;680788;29;1168;-82
2022/12/11 01:21:12;;;;;;;69.18;36.08;;;;;;;1.96;66.17;100591.91;675434;29;1143;-83
2022/12/11 01:21:32;;;;;;;71.35;36.40;;;;;;;1.88;66.26;100571.75;677942;29;1470;-83
2022/12/11 01:21:53;;;;;;;71.57;35.97;;;;;;;1.93;66.48;100578.81;678077;29;1313;-83
2022/12/11 01:22:14;;;;;;;71.70;36.53;;;;;;;1.97;66.11;100591.09;678066;29;1089;-83
2022/12/11 01:22:34;;;;;;;70.70;36.15;;;;;;;1.92;66.25;100577.97;678162;29;1133;-83
2022/12/11 01:22:57;;;;;;;67.80;35.90;;;;;;;1.95;66.15;100591.00;675413;29;1200;-83
2022/12/11 01:23:17;;;;;;;69.45;36.17;;;;;;;1.94;66.40;100588.34;670858;29;1099;-83
2022/12/11 01:23:39;;;;;;;73.07;36.80;;;;;;;1.98;66.69;100590.28;678010;29;1335;-83
2022/12/11 01:23:59;;;;;;;73.25;37.08;;;;;;;1.93;66.57;100578.81;678142;29;1122;-83
2022/12/11 01:24:20;;;;;;;68.80;35.97;;;;;;;2.01;66.43;100595.66;683255;29;1262;-83
2022/12/11 01:24:41;;;;;;;67.32;35.83;;;;;;;1.97;66.44;100597.16;675398;29;1064;-83
2022/12/11 01:25:02;;;;;;;70.38;36.45;;;;;;;1.94;66.30;100585.78;680657;29;1182;-83
2022/12/11 01:25:23;;;;;;;72.88;36.92;;;;;;;1.98;66.20;100595.44;678102;29;1198;-82
2022/12/11 01:25:44;;;;;;;71.57;35.67;;;;;;;1.97;66.35;100591.09;678084;29;982;-84
2022/12/11 01:26:13;;;;;;;70.73;35.43;;;;;;;2.05;66.28;100600.16;683416;29;1083;-83
2022/12/11 01:26:33;;;;;;;70.88;36.13;;;;;;;1.96;66.58;100597.03;675395;29;1214;-83
2022/12/11 01:26:54;;;;;;;69.05;36.50;;;;;;;1.96;66.51;100589.31;675325;29;1055;-83
2022/12/11 01:27:15;;;;;;;68.28;35.83;;;;;;;1.97;66.72;100596.25;675376;29;982;-83
2022/12/11 01:27:37;;;;;;;67.37;36.13;;;;;;;2.04;66.40;100616.41;680634;29;1119;-83
2022/12/11 01:27:58;;;;;;;70.45;35.97;;;;;;;1.95;66.43;100588.41;680727;29;1179;-83
2022/12/11 01:28:18;;;;;;;69.28;34.55;;;;;;;1.95;66.19;100593.56;678066;29;1108;-83
2022/12/11 01:28:41;;;;;;;67.73;34.33;;;;;;;2.04;66.60;100612.13;677956;29;1106;-83
2022/12/11 01:29:02;;;;;;;62.97;34.28;;;;;;;1.98;66.44;100590.28;680660;29;1192;-83
2022/12/11 01:29:22;;;;;;;64.55;35.22;;;;;;;1.97;66.57;100601.41;680575;29;1059;-83
2022/12/11 01:29:43;;;;;;;66.70;35.83;;;;;;;1.97;66.59;100596.25;678033;29;1194;-83
2022/12/11 01:30:06;;;;;;;69.80;35.80;;;;;;;2.02;66.39;100616.31;677993;29;1146;-83
2022/12/11 01:30:27;;;;;;;67.22;35.00;;;;;;;1.97;66.13;100596.25;678052;29;1352;-83
2022/12/11 01:30:48;;;;;;;69.55;35.80;;;;;;;1.97;66.50;100603.97;675345;29;1071;-83
2022/12/11 01:31:09;;;;;;;72.00;36.20;;;;;;;1.97;66.42;100601.41;672821;29;1133;-83
2022/12/11 01:31:30;;;;;;;76.15;37.10;;;;;;;1.97;66.40;100601.41;672924;29;1213;-83
2022/12/11 01:31:51;;;;;;;75.43;36.55;;;;;;;1.98;66.31;100601.50;675514;29;1012;-83
2022/12/11 01:32:11;;;;;;;75.70;37.05;;;;;;;1.95;66.69;100598.72;675438;29;1126;-83
2022/12/11 01:32:33;;;;;;;74.53;37.20;;;;;;;1.96;66.65;100604.78;680567;29;1300;-83
2022/12/11 01:32:54;;;;;;;76.45;37.78;;;;;;;2.07;66.46;100614.00;677991;29;821;-83
2022/12/11 01:33:14;;;;;;;76.13;37.50;;;;;;;1.99;66.44;100599.78;678046;29;1135;-82
2022/12/11 01:33:35;;;;;;;78.30;37.78;;;;;;;2.01;66.60;100603.38;675401;29;1039;-83
2022/12/11 01:33:56;;;;;;;75.53;37.45;;;;;;;2.01;66.52;100605.94;678094;29;1350;-83
2022/12/11 01:34:16;;;;;;;73.97;37.07;;;;;;;1.96;66.63;100594.47;680643;29;1094;-83
2022/12/11 01:34:37;;;;;;;73.55;36.90;;;;;;;1.98;66.67;100592.88;680535;29;1990;-83
2022/12/11 01:34:58;;;;;;;76.63;36.80;;;;;;;2.01;66.46;100593.06;678050;29;1191;-83
2022/12/11 01:35:19;;;;;;;78.22;37.65;;;;;;;2.08;66.61;100605.50;680551;29;1149;-83
2022/12/11 01:35:39;;;;;;;79.95;38.60;;;;;;;2.03;66.43;100600.06;677974;29;1270;-83
2022/12/11 01:36:00;;;;;;;79.97;38.92;;;;;;;1.90;66.67;100600.16;683381;29;728;-83
2022/12/11 01:36:22;;;;;;;81.57;39.20;;;;;;;1.95;66.88;100600.41;683198;29;1249;-83
2022/12/11 01:36:42;;;;;;;80.78;38.65;;;;;;;1.97;66.60;100596.25;680457;29;1262;-83
2022/12/11 01:37:03;;;;;;;82.32;39.20;;;;;;;1.90;66.53;100589.84;680426;29;1181;-83
2022/12/11 01:37:23;;;;;;;83.43;39.35;;;;;;;1.97;66.45;100601.41;678144;29;1120;-83
2022/12/11 01:37:44;;;;;;;86.93;40.10;;;;;;;2.03;66.26;100609.50;680646;29;1198;-83
2022/12/11 01:38:05;;;;;;;83.32;39.30;;;;;;;1.99;66.78;100605.84;675426;29;1282;-83
2022/12/11 01:38:25;;;;;;;85.47;40.13;;;;;;;2.00;66.51;100597.31;675387;29;1176;-83
2022/12/11 01:38:48;;;;;;;84.07;39.40;;;;;;;1.98;66.24;100590.28;680676;29;1065;-83
2022/12/11 01:39:08;;;;;;;86.30;39.20;;;;;;;1.96;66.53;100599.63;683346;29;958;-83
2022/12/11 01:39:29;;;;;;;82.10;37.83;;;;;;;1.95;66.60;100595.28;678158;29;1139;-83
2022/12/11 01:39:50;;;;;;;81.93;37.75;;;;;;;1.96;66.68;100600.50;680528;29;1210;-83
2022/12/11 01:40:17;;;;;;;79.07;36.90;;;;;;;2.02;66.69;100605.16;683378;29;1137;-83
2022/12/11 01:40:37;;;;;;;81.63;37.83;;;;;;;1.95;66.44;100597.84;683167;28;1194;-83
2022/12/11 01:40:58;;;;;;;81.23;39.47;;;;;;;1.96;66.47;100597.03;680802;29;910;-83